sensor_id;sensor_type;location;lat;lon;timestamp;temperature;humidity
37874;DHT22;23709;48.078;11.684;2022-11-04T00:01:37;11.90;99.90
37874;DHT22;23709;48.078;11.684;2022-11-04T00:04:12;11.90;99.90
37874;DHT22;23709;48.078;11.684;2022-11-04T00:06:44;12.00;99.90
37874;DHT22;23709;48.078;11.684;2022-11-04T00:09:19;12.00;99.90
37874;DHT22;23709;48.078;11.684;2022-11-04T00:11:51;12.00;99.90
37874;DHT22;23709;48.078;11.684;2022-11-04T00:14:42;12.10;99.90
37874;DHT22;23709;48.078;11.684;2022-11-04T00:17:14;12.10;99.90
37874;DHT22;23709;48.078;11.684;2022-11-04T00:19:55;12.10;99.90
37874;DHT22;23709;48.078;11.684;2022-11-04T00:22:47;12.00;99.90
37874;DHT22;23709;48.078;11.684;2022-11-04T00:25:38;12.00;99.90
37874;DHT22;23709;48.078;11.684;2022-11-04T00:28:29;12.00;99.90
37874;DHT22;23709;48.078;11.684;2022-11-04T00:31:16;12.00;99.90
37874;DHT22;23709;48.078;11.684;2022-11-04T00:34:06;11.90;99.90
37874;DHT22;23709;48.078;11.684;2022-11-04T00:36:38;11.90;99.90
37874;DHT22;23709;48.078;11.684;2022-11-04T00:39:10;11.90;99.90
37874;DHT22;23709;48.078;11.684;2022-11-04T00:41:43;11.90;99.90
37874;DHT22;23709;48.078;11.684;2022-11-04T00:44:15;11.80;99.90
37874;DHT22;23709;48.078;11.684;2022-11-04T00:46:47;11.70;99.90
37874;DHT22;23709;48.078;11.684;2022-11-04T00:49:19;11.70;99.90
37874;DHT22;23709;48.078;11.684;2022-11-04T00:51:51;11.70;99.90
37874;DHT22;23709;48.078;11.684;2022-11-04T00:54:23;11.70;99.90
37874;DHT22;23709;48.078;11.684;2022-11-04T00:56:55;11.60;99.90
37874;DHT22;23709;48.078;11.684;2022-11-04T00:59:27;11.50;99.90
37874;DHT22;23709;48.078;11.684;2022-11-04T01:01:59;11.40;99.90
37874;DHT22;23709;48.078;11.684;2022-11-04T01:04:32;11.20;99.90
37874;DHT22;23709;48.078;11.684;2022-11-04T01:07:04;11.10;99.90
37874;DHT22;23709;48.078;11.684;2022-11-04T01:09:36;10.90;99.90
37874;DHT22;23709;48.078;11.684;2022-11-04T01:12:08;10.80;99.90
37874;DHT22;23709;48.078;11.684;2022-11-04T01:14:40;10.70;99.90
37874;DHT22;23709;48.078;11.684;2022-11-04T01:17:12;10.60;99.90
37874;DHT22;23709;48.078;11.684;2022-11-04T01:19:44;10.50;99.90
37874;DHT22;23709;48.078;11.684;2022-11-04T01:22:16;10.30;99.90
37874;DHT22;23709;48.078;11.684;2022-11-04T01:24:49;10.20;99.90
37874;DHT22;23709;48.078;11.684;2022-11-04T01:27:21;10.20;99.90
37874;DHT22;23709;48.078;11.684;2022-11-04T01:29:53;10.10;99.90
37874;DHT22;23709;48.078;11.684;2022-11-04T01:32:26;10.00;99.90
37874;DHT22;23709;48.078;11.684;2022-11-04T01:34:59;9.90;99.90
37874;DHT22;23709;48.078;11.684;2022-11-04T01:37:31;9.80;99.90
37874;DHT22;23709;48.078;11.684;2022-11-04T01:40:03;9.80;99.90
37874;DHT22;23709;48.078;11.684;2022-11-04T01:42:35;9.80;99.90
37874;DHT22;23709;48.078;11.684;2022-11-04T01:45:13;9.70;99.90
37874;DHT22;23709;48.078;11.684;2022-11-04T01:48:27;9.60;99.90
37874;DHT22;23709;48.078;11.684;2022-11-04T01:50:53;9.60;99.90
37874;DHT22;23709;48.078;11.684;2022-11-04T01:53:33;9.60;99.90
37874;DHT22;23709;48.078;11.684;2022-11-04T01:56:10;9.50;99.90
37874;DHT22;23709;48.078;11.684;2022-11-04T01:58:46;9.60;99.90
37874;DHT22;23709;48.078;11.684;2022-11-04T02:01:19;9.50;99.90
37874;DHT22;23709;48.078;11.684;2022-11-04T02:03:59;9.50;99.90
37874;DHT22;23709;48.078;11.684;2022-11-04T02:10:47;9.50;99.90
37874;DHT22;23709;48.078;11.684;2022-11-04T02:13:21;9.60;99.90
37874;DHT22;23709;48.078;11.684;2022-11-04T02:16:22;9.60;99.90
37874;DHT22;23709;48.078;11.684;2022-11-04T02:37:38;9.60;99.90
37874;DHT22;23709;48.078;11.684;2022-11-04T02:43:04;9.50;99.90
37874;DHT22;23709;48.078;11.684;2022-11-04T02:45:42;9.40;99.90
37874;DHT22;23709;48.078;11.684;2022-11-04T02:48:48;9.40;99.90
37874;DHT22;23709;48.078;11.684;2022-11-04T02:51:39;9.40;99.90
37874;DHT22;23709;48.078;11.684;2022-11-04T02:54:39;9.30;99.90
37874;DHT22;23709;48.078;11.684;2022-11-04T02:57:16;9.30;99.90
37874;DHT22;23709;48.078;11.684;2022-11-04T03:00:00;9.30;99.90
37874;DHT22;23709;48.078;11.684;2022-11-04T03:05:16;9.20;99.90
37874;DHT22;23709;48.078;11.684;2022-11-04T03:07:51;9.20;99.90
37874;DHT22;23709;48.078;11.684;2022-11-04T03:10:42;9.20;99.90
37874;DHT22;23709;48.078;11.684;2022-11-04T03:13:38;9.20;99.90
37874;DHT22;23709;48.078;11.684;2022-11-04T03:16:18;9.20;99.90
37874;DHT22;23709;48.078;11.684;2022-11-04T03:19:13;9.20;99.90
37874;DHT22;23709;48.078;11.684;2022-11-04T03:21:53;9.20;99.90
37874;DHT22;23709;48.078;11.684;2022-11-04T03:24:26;9.20;99.90
37874;DHT22;23709;48.078;11.684;2022-11-04T03:27:27;9.20;99.90
37874;DHT22;23709;48.078;11.684;2022-11-04T03:30:06;9.20;99.90
37874;DHT22;23709;48.078;11.684;2022-11-04T03:33:06;9.20;99.90
37874;DHT22;23709;48.078;11.684;2022-11-04T03:35:42;9.20;99.90
37874;DHT22;23709;48.078;11.684;2022-11-04T03:38:15;9.20;99.90
37874;DHT22;23709;48.078;11.684;2022-11-04T03:40:47;9.30;99.90
37874;DHT22;23709;48.078;11.684;2022-11-04T03:43:29;9.20;99.90
37874;DHT22;23709;48.078;11.684;2022-11-04T03:46:02;9.20;99.90
37874;DHT22;23709;48.078;11.684;2022-11-04T03:48:34;9.20;99.90
37874;DHT22;23709;48.078;11.684;2022-11-04T03:51:08;9.30;99.90
37874;DHT22;23709;48.078;11.684;2022-11-04T03:53:40;9.30;99.90
37874;DHT22;23709;48.078;11.684;2022-11-04T03:57:07;9.30;99.90
37874;DHT22;23709;48.078;11.684;2022-11-04T03:59:49;9.40;99.90
37874;DHT22;23709;48.078;11.684;2022-11-04T04:11:08;9.30;99.90
37874;DHT22;23709;48.078;11.684;2022-11-04T04:16:38;9.20;99.90
37874;DHT22;23709;48.078;11.684;2022-11-04T04:19:21;9.20;99.90
37874;DHT22;23709;48.078;11.684;2022-11-04T04:21:59;9.20;99.90
37874;DHT22;23709;48.078;11.684;2022-11-04T04:24:36;9.10;99.90
37874;DHT22;23709;48.078;11.684;2022-11-04T04:27:29;9.20;99.90
37874;DHT22;23709;48.078;11.684;2022-11-04T04:30:08;9.20;99.90
37874;DHT22;23709;48.078;11.684;2022-11-04T04:35:16;9.20;99.90
37874;DHT22;23709;48.078;11.684;2022-11-04T04:38:29;9.10;99.90
37874;DHT22;23709;48.078;11.684;2022-11-04T04:41:31;9.20;99.90
37874;DHT22;23709;48.078;11.684;2022-11-04T04:44:24;9.20;99.90
37874;DHT22;23709;48.078;11.684;2022-11-04T04:47:22;9.10;99.90
37874;DHT22;23709;48.078;11.684;2022-11-04T04:49:57;9.10;99.90
37874;DHT22;23709;48.078;11.684;2022-11-04T04:52:32;9.20;99.90
37874;DHT22;23709;48.078;11.684;2022-11-04T04:55:05;9.20;99.90
37874;DHT22;23709;48.078;11.684;2022-11-04T04:57:38;9.20;99.90
37874;DHT22;23709;48.078;11.684;2022-11-04T05:00:19;9.20;99.90
37874;DHT22;23709;48.078;11.684;2022-11-04T05:02:52;9.20;99.90
37874;DHT22;23709;48.078;11.684;2022-11-04T05:05:24;9.20;99.90
37874;DHT22;23709;48.078;11.684;2022-11-04T05:08:03;9.20;99.90
37874;DHT22;23709;48.078;11.684;2022-11-04T05:10:36;9.10;99.90
37874;DHT22;23709;48.078;11.684;2022-11-04T05:13:11;9.20;99.90
37874;DHT22;23709;48.078;11.684;2022-11-04T05:16:07;9.20;99.90
37874;DHT22;23709;48.078;11.684;2022-11-04T05:18:39;9.10;99.90
37874;DHT22;23709;48.078;11.684;2022-11-04T05:21:14;9.10;99.90
37874;DHT22;23709;48.078;11.684;2022-11-04T05:23:46;9.00;99.90
37874;DHT22;23709;48.078;11.684;2022-11-04T05:26:18;9.10;99.90
37874;DHT22;23709;48.078;11.684;2022-11-04T05:28:51;9.10;99.90
37874;DHT22;23709;48.078;11.684;2022-11-04T05:31:23;9.00;99.90
37874;DHT22;23709;48.078;11.684;2022-11-04T05:33:55;8.90;99.90
37874;DHT22;23709;48.078;11.684;2022-11-04T05:36:28;8.90;99.90
37874;DHT22;23709;48.078;11.684;2022-11-04T05:39:00;9.00;99.90
37874;DHT22;23709;48.078;11.684;2022-11-04T05:41:33;9.00;99.90
37874;DHT22;23709;48.078;11.684;2022-11-04T05:44:06;8.90;99.90
37874;DHT22;23709;48.078;11.684;2022-11-04T05:46:40;8.90;99.90
37874;DHT22;23709;48.078;11.684;2022-11-04T05:49:12;8.90;99.90
37874;DHT22;23709;48.078;11.684;2022-11-04T05:51:44;8.90;99.90
37874;DHT22;23709;48.078;11.684;2022-11-04T05:54:16;8.90;99.90
37874;DHT22;23709;48.078;11.684;2022-11-04T05:56:48;8.80;99.90
37874;DHT22;23709;48.078;11.684;2022-11-04T05:59:20;8.90;99.90
37874;DHT22;23709;48.078;11.684;2022-11-04T06:01:52;8.80;99.90
37874;DHT22;23709;48.078;11.684;2022-11-04T06:04:25;8.80;99.90
37874;DHT22;23709;48.078;11.684;2022-11-04T06:06:57;8.80;99.90
37874;DHT22;23709;48.078;11.684;2022-11-04T06:09:29;8.70;99.90
37874;DHT22;23709;48.078;11.684;2022-11-04T06:12:14;8.70;99.90
37874;DHT22;23709;48.078;11.684;2022-11-04T06:14:46;8.70;99.90
37874;DHT22;23709;48.078;11.684;2022-11-04T06:17:20;8.70;99.90
37874;DHT22;23709;48.078;11.684;2022-11-04T06:19:52;8.60;99.90
37874;DHT22;23709;48.078;11.684;2022-11-04T06:22:24;8.60;99.90
37874;DHT22;23709;48.078;11.684;2022-11-04T06:24:56;8.70;99.90
37874;DHT22;23709;48.078;11.684;2022-11-04T06:27:28;8.70;99.90
37874;DHT22;23709;48.078;11.684;2022-11-04T06:30:00;8.70;99.90
37874;DHT22;23709;48.078;11.684;2022-11-04T06:32:32;8.60;99.90
37874;DHT22;23709;48.078;11.684;2022-11-04T06:35:05;8.60;99.90
37874;DHT22;23709;48.078;11.684;2022-11-04T06:37:39;8.50;99.90
37874;DHT22;23709;48.078;11.684;2022-11-04T06:40:11;8.40;99.90
37874;DHT22;23709;48.078;11.684;2022-11-04T06:42:44;8.40;99.90
37874;DHT22;23709;48.078;11.684;2022-11-04T06:45:16;8.30;99.90
37874;DHT22;23709;48.078;11.684;2022-11-04T06:47:48;8.40;99.90
37874;DHT22;23709;48.078;11.684;2022-11-04T06:50:20;8.30;99.90
37874;DHT22;23709;48.078;11.684;2022-11-04T06:52:52;8.30;99.90
37874;DHT22;23709;48.078;11.684;2022-11-04T06:55:24;8.20;99.90
37874;DHT22;23709;48.078;11.684;2022-11-04T06:57:56;8.20;99.90
37874;DHT22;23709;48.078;11.684;2022-11-04T07:00:29;8.30;99.90
37874;DHT22;23709;48.078;11.684;2022-11-04T07:03:01;8.30;99.90
37874;DHT22;23709;48.078;11.684;2022-11-04T07:05:33;8.30;99.90
37874;DHT22;23709;48.078;11.684;2022-11-04T07:08:05;8.30;99.90
37874;DHT22;23709;48.078;11.684;2022-11-04T07:10:39;8.30;99.90
37874;DHT22;23709;48.078;11.684;2022-11-04T07:13:11;8.30;99.90
37874;DHT22;23709;48.078;11.684;2022-11-04T07:15:43;8.30;99.90
37874;DHT22;23709;48.078;11.684;2022-11-04T07:18:15;8.40;99.90
37874;DHT22;23709;48.078;11.684;2022-11-04T07:20:47;8.40;99.90
37874;DHT22;23709;48.078;11.684;2022-11-04T07:23:19;8.40;99.90
37874;DHT22;23709;48.078;11.684;2022-11-04T07:25:51;8.40;99.90
37874;DHT22;23709;48.078;11.684;2022-11-04T07:28:25;8.30;99.90
37874;DHT22;23709;48.078;11.684;2022-11-04T07:30:59;8.30;99.90
37874;DHT22;23709;48.078;11.684;2022-11-04T07:33:31;8.30;99.90
37874;DHT22;23709;48.078;11.684;2022-11-04T07:36:06;8.30;99.90
37874;DHT22;23709;48.078;11.684;2022-11-04T07:38:38;8.20;99.90
37874;DHT22;23709;48.078;11.684;2022-11-04T07:41:11;8.20;99.90
37874;DHT22;23709;48.078;11.684;2022-11-04T07:43:50;8.20;99.90
37874;DHT22;23709;48.078;11.684;2022-11-04T07:46:23;8.20;99.90
37874;DHT22;23709;48.078;11.684;2022-11-04T07:48:56;8.20;99.90
37874;DHT22;23709;48.078;11.684;2022-11-04T07:51:29;8.20;99.90
37874;DHT22;23709;48.078;11.684;2022-11-04T07:54:03;8.20;99.90
37874;DHT22;23709;48.078;11.684;2022-11-04T07:56:35;8.20;99.90
37874;DHT22;23709;48.078;11.684;2022-11-04T07:59:07;8.10;99.90
37874;DHT22;23709;48.078;11.684;2022-11-04T08:01:39;8.10;99.90
37874;DHT22;23709;48.078;11.684;2022-11-04T08:04:12;8.20;99.90
37874;DHT22;23709;48.078;11.684;2022-11-04T08:06:44;8.20;99.90
37874;DHT22;23709;48.078;11.684;2022-11-04T08:09:16;8.10;99.90
37874;DHT22;23709;48.078;11.684;2022-11-04T08:11:48;8.10;99.90
37874;DHT22;23709;48.078;11.684;2022-11-04T08:14:20;8.20;99.90
37874;DHT22;23709;48.078;11.684;2022-11-04T08:16:53;8.10;99.90
37874;DHT22;23709;48.078;11.684;2022-11-04T08:19:25;8.10;99.90
37874;DHT22;23709;48.078;11.684;2022-11-04T08:21:57;8.10;99.90
37874;DHT22;23709;48.078;11.684;2022-11-04T08:24:29;8.10;99.90
37874;DHT22;23709;48.078;11.684;2022-11-04T08:27:03;8.10;99.90
37874;DHT22;23709;48.078;11.684;2022-11-04T08:29:35;8.10;99.90
37874;DHT22;23709;48.078;11.684;2022-11-04T08:32:08;8.10;99.90
37874;DHT22;23709;48.078;11.684;2022-11-04T08:34:40;8.00;99.90
37874;DHT22;23709;48.078;11.684;2022-11-04T08:37:14;8.10;99.90
37874;DHT22;23709;48.078;11.684;2022-11-04T08:39:46;8.00;99.90
37874;DHT22;23709;48.078;11.684;2022-11-04T08:42:18;7.90;99.90
37874;DHT22;23709;48.078;11.684;2022-11-04T08:44:51;7.90;99.90
37874;DHT22;23709;48.078;11.684;2022-11-04T08:47:23;7.90;99.90
37874;DHT22;23709;48.078;11.684;2022-11-04T08:49:55;8.00;99.90
37874;DHT22;23709;48.078;11.684;2022-11-04T08:52:27;8.00;99.90
37874;DHT22;23709;48.078;11.684;2022-11-04T08:54:59;7.90;99.90
37874;DHT22;23709;48.078;11.684;2022-11-04T08:57:31;7.90;99.90
37874;DHT22;23709;48.078;11.684;2022-11-04T09:00:04;8.00;99.90
37874;DHT22;23709;48.078;11.684;2022-11-04T09:02:37;8.00;99.90
37874;DHT22;23709;48.078;11.684;2022-11-04T09:05:11;7.90;99.90
37874;DHT22;23709;48.078;11.684;2022-11-04T09:07:43;7.80;99.90
37874;DHT22;23709;48.078;11.684;2022-11-04T09:10:16;7.80;99.90
37874;DHT22;23709;48.078;11.684;2022-11-04T09:12:48;7.80;99.90
37874;DHT22;23709;48.078;11.684;2022-11-04T09:15:20;7.80;99.90
37874;DHT22;23709;48.078;11.684;2022-11-04T09:17:52;7.80;99.90
37874;DHT22;23709;48.078;11.684;2022-11-04T09:20:24;7.90;99.90
37874;DHT22;23709;48.078;11.684;2022-11-04T09:22:58;7.90;99.90
37874;DHT22;23709;48.078;11.684;2022-11-04T09:25:30;7.90;99.90
37874;DHT22;23709;48.078;11.684;2022-11-04T09:28:04;7.90;99.90
37874;DHT22;23709;48.078;11.684;2022-11-04T09:30:36;8.00;99.90
37874;DHT22;23709;48.078;11.684;2022-11-04T09:33:09;7.90;99.90
37874;DHT22;23709;48.078;11.684;2022-11-04T09:35:41;8.00;99.90
37874;DHT22;23709;48.078;11.684;2022-11-04T09:38:13;7.90;99.90
37874;DHT22;23709;48.078;11.684;2022-11-04T09:40:45;7.90;99.90
37874;DHT22;23709;48.078;11.684;2022-11-04T09:46:11;8.10;99.90
37874;DHT22;23709;48.078;11.684;2022-11-04T09:48:48;8.00;99.90
37874;DHT22;23709;48.078;11.684;2022-11-04T09:51:24;8.00;99.90
37874;DHT22;23709;48.078;11.684;2022-11-04T09:54:40;8.10;99.90
37874;DHT22;23709;48.078;11.684;2022-11-04T09:57:19;8.10;99.90
37874;DHT22;23709;48.078;11.684;2022-11-04T09:59:51;8.10;99.90
37874;DHT22;23709;48.078;11.684;2022-11-04T10:02:41;8.10;99.90
37874;DHT22;23709;48.078;11.684;2022-11-04T10:05:34;8.20;99.90
37874;DHT22;23709;48.078;11.684;2022-11-04T10:08:22;8.10;99.90
37874;DHT22;23709;48.078;11.684;2022-11-04T10:11:09;8.10;99.90
37874;DHT22;23709;48.078;11.684;2022-11-04T10:16:28;8.10;99.90
37874;DHT22;23709;48.078;11.684;2022-11-04T10:27:11;8.00;99.90
37874;DHT22;23709;48.078;11.684;2022-11-04T10:29:47;8.10;99.90
37874;DHT22;23709;48.078;11.684;2022-11-04T10:32:25;8.10;99.90
37874;DHT22;23709;48.078;11.684;2022-11-04T10:37:45;8.20;99.90
37874;DHT22;23709;48.078;11.684;2022-11-04T10:40:28;8.20;99.90
37874;DHT22;23709;48.078;11.684;2022-11-04T10:43:08;8.20;99.90
37874;DHT22;23709;48.078;11.684;2022-11-04T10:48:45;8.40;99.90
37874;DHT22;23709;48.078;11.684;2022-11-04T10:51:20;8.50;99.90
37874;DHT22;23709;48.078;11.684;2022-11-04T10:53:56;8.50;99.90
37874;DHT22;23709;48.078;11.684;2022-11-04T10:56:59;8.50;99.90
37874;DHT22;23709;48.078;11.684;2022-11-04T11:05:12;8.40;99.90
37874;DHT22;23709;48.078;11.684;2022-11-04T11:07:46;8.50;99.90
37874;DHT22;23709;48.078;11.684;2022-11-04T11:10:22;8.50;99.90
37874;DHT22;23709;48.078;11.684;2022-11-04T11:13:01;8.50;99.90
37874;DHT22;23709;48.078;11.684;2022-11-04T11:15:38;8.40;99.90
37874;DHT22;23709;48.078;11.684;2022-11-04T11:18:17;8.30;99.90
37874;DHT22;23709;48.078;11.684;2022-11-04T11:23:44;8.30;99.90
37874;DHT22;23709;48.078;11.684;2022-11-04T11:26:29;8.30;99.90
37874;DHT22;23709;48.078;11.684;2022-11-04T11:29:09;8.30;99.90
37874;DHT22;23709;48.078;11.684;2022-11-04T11:31:42;8.30;99.90
37874;DHT22;23709;48.078;11.684;2022-11-04T11:34:21;8.40;99.90
37874;DHT22;23709;48.078;11.684;2022-11-04T11:36:55;8.30;99.90
37874;DHT22;23709;48.078;11.684;2022-11-04T11:39:30;8.30;99.90
37874;DHT22;23709;48.078;11.684;2022-11-04T11:42:11;8.20;99.90
37874;DHT22;23709;48.078;11.684;2022-11-04T11:44:52;8.20;99.90
37874;DHT22;23709;48.078;11.684;2022-11-04T11:50:16;8.10;99.90
37874;DHT22;23709;48.078;11.684;2022-11-04T11:52:49;8.00;99.90
37874;DHT22;23709;48.078;11.684;2022-11-04T11:55:29;7.90;99.90
37874;DHT22;23709;48.078;11.684;2022-11-04T11:58:28;7.90;99.90
37874;DHT22;23709;48.078;11.684;2022-11-04T12:04:02;7.60;99.90
37874;DHT22;23709;48.078;11.684;2022-11-04T12:07:16;7.50;99.90
37874;DHT22;23709;48.078;11.684;2022-11-04T12:13:45;7.50;99.90
37874;DHT22;23709;48.078;11.684;2022-11-04T12:25:35;7.50;99.90
37874;DHT22;23709;48.078;11.684;2022-11-04T12:37:01;7.70;99.90
37874;DHT22;23709;48.078;11.684;2022-11-04T12:54:28;7.50;99.90
37874;DHT22;23709;48.078;11.684;2022-11-04T13:07:49;7.50;99.90
37874;DHT22;23709;48.078;11.684;2022-11-04T13:10:34;7.50;99.90
37874;DHT22;23709;48.078;11.684;2022-11-04T13:13:11;7.50;99.90
37874;DHT22;23709;48.078;11.684;2022-11-04T13:15:50;7.50;99.90
37874;DHT22;23709;48.078;11.684;2022-11-04T13:18:25;7.50;99.90
37874;DHT22;23709;48.078;11.684;2022-11-04T13:21:09;7.50;99.90
37874;DHT22;23709;48.078;11.684;2022-11-04T13:24:06;7.50;99.90
37874;DHT22;23709;48.078;11.684;2022-11-04T13:26:47;7.60;99.90
37874;DHT22;23709;48.078;11.684;2022-11-04T13:29:20;7.60;99.90
37874;DHT22;23709;48.078;11.684;2022-11-04T13:32:19;7.50;99.90
37874;DHT22;23709;48.078;11.684;2022-11-04T13:40:39;7.40;99.90
37874;DHT22;23709;48.078;11.684;2022-11-04T13:43:21;7.40;99.90
37874;DHT22;23709;48.078;11.684;2022-11-04T13:51:42;7.40;99.90
37874;DHT22;23709;48.078;11.684;2022-11-04T13:54:30;7.40;99.90
37874;DHT22;23709;48.078;11.684;2022-11-04T13:57:06;7.40;99.90
37874;DHT22;23709;48.078;11.684;2022-11-04T13:59:40;7.40;99.90
37874;DHT22;23709;48.078;11.684;2022-11-04T14:04:45;7.40;99.90
37874;DHT22;23709;48.078;11.684;2022-11-04T14:07:18;7.40;99.90
37874;DHT22;23709;48.078;11.684;2022-11-04T14:09:52;7.30;99.90
37874;DHT22;23709;48.078;11.684;2022-11-04T14:12:28;7.30;99.90
37874;DHT22;23709;48.078;11.684;2022-11-04T14:15:11;7.40;99.90
37874;DHT22;23709;48.078;11.684;2022-11-04T14:20:25;7.40;99.90
37874;DHT22;23709;48.078;11.684;2022-11-04T14:23:00;7.40;99.90
37874;DHT22;23709;48.078;11.684;2022-11-04T14:41:53;7.60;99.90
37874;DHT22;23709;48.078;11.684;2022-11-04T14:49:59;7.50;99.90
37874;DHT22;23709;48.078;11.684;2022-11-04T14:52:36;7.60;99.90
37874;DHT22;23709;48.078;11.684;2022-11-04T14:57:44;7.50;99.90
37874;DHT22;23709;48.078;11.684;2022-11-04T15:00:56;7.60;99.90
37874;DHT22;23709;48.078;11.684;2022-11-04T15:03:38;7.50;99.90
37874;DHT22;23709;48.078;11.684;2022-11-04T15:06:31;7.50;99.90
37874;DHT22;23709;48.078;11.684;2022-11-04T15:09:39;7.60;99.90
37874;DHT22;23709;48.078;11.684;2022-11-04T15:12:13;7.60;99.90
37874;DHT22;23709;48.078;11.684;2022-11-04T15:20:39;7.60;99.90
37874;DHT22;23709;48.078;11.684;2022-11-04T15:23:27;7.50;99.90
37874;DHT22;23709;48.078;11.684;2022-11-04T15:26:00;7.40;99.90
37874;DHT22;23709;48.078;11.684;2022-11-04T15:28:37;7.40;99.90
37874;DHT22;23709;48.078;11.684;2022-11-04T15:33:47;7.30;99.90
37874;DHT22;23709;48.078;11.684;2022-11-04T15:36:37;7.30;99.90
37874;DHT22;23709;48.078;11.684;2022-11-04T15:39:14;7.20;99.90
37874;DHT22;23709;48.078;11.684;2022-11-04T15:41:49;7.10;99.90
37874;DHT22;23709;48.078;11.684;2022-11-04T15:44:48;7.00;99.90
37874;DHT22;23709;48.078;11.684;2022-11-04T15:47:26;7.00;99.90
37874;DHT22;23709;48.078;11.684;2022-11-04T15:50:18;7.00;99.90
37874;DHT22;23709;48.078;11.684;2022-11-04T15:52:54;7.00;99.90
37874;DHT22;23709;48.078;11.684;2022-11-04T15:55:27;7.00;99.90
37874;DHT22;23709;48.078;11.684;2022-11-04T15:58:01;7.00;99.90
37874;DHT22;23709;48.078;11.684;2022-11-04T16:00:33;7.00;99.90
37874;DHT22;23709;48.078;11.684;2022-11-04T16:03:05;6.90;99.90
37874;DHT22;23709;48.078;11.684;2022-11-04T16:06:06;6.90;99.90
37874;DHT22;23709;48.078;11.684;2022-11-04T16:08:39;6.90;99.90
37874;DHT22;23709;48.078;11.684;2022-11-04T16:11:14;6.90;99.90
37874;DHT22;23709;48.078;11.684;2022-11-04T16:13:47;6.90;99.90
37874;DHT22;23709;48.078;11.684;2022-11-04T16:16:25;6.80;99.90
37874;DHT22;23709;48.078;11.684;2022-11-04T16:18:58;6.80;99.90
37874;DHT22;23709;48.078;11.684;2022-11-04T16:21:32;6.80;99.90
37874;DHT22;23709;48.078;11.684;2022-11-04T16:24:06;6.80;99.90
37874;DHT22;23709;48.078;11.684;2022-11-04T16:26:41;6.70;99.90
37874;DHT22;23709;48.078;11.684;2022-11-04T16:29:32;6.80;99.90
37874;DHT22;23709;48.078;11.684;2022-11-04T16:34:51;6.70;99.90
37874;DHT22;23709;48.078;11.684;2022-11-04T16:37:25;6.60;99.90
37874;DHT22;23709;48.078;11.684;2022-11-04T16:39:57;6.50;99.90
37874;DHT22;23709;48.078;11.684;2022-11-04T16:42:29;6.50;99.90
37874;DHT22;23709;48.078;11.684;2022-11-04T16:45:02;6.40;99.90
37874;DHT22;23709;48.078;11.684;2022-11-04T16:47:37;6.40;99.90
37874;DHT22;23709;48.078;11.684;2022-11-04T16:50:15;6.40;99.90
37874;DHT22;23709;48.078;11.684;2022-11-04T16:52:47;6.40;99.90
37874;DHT22;23709;48.078;11.684;2022-11-04T16:55:20;6.30;99.90
37874;DHT22;23709;48.078;11.684;2022-11-04T16:57:59;6.20;99.90
37874;DHT22;23709;48.078;11.684;2022-11-04T17:00:33;6.30;99.90
37874;DHT22;23709;48.078;11.684;2022-11-04T17:03:14;6.20;99.90
37874;DHT22;23709;48.078;11.684;2022-11-04T17:05:55;6.20;99.90
37874;DHT22;23709;48.078;11.684;2022-11-04T17:08:27;6.20;99.90
37874;DHT22;23709;48.078;11.684;2022-11-04T17:11:00;6.30;99.90
37874;DHT22;23709;48.078;11.684;2022-11-04T17:13:32;6.20;99.90
37874;DHT22;23709;48.078;11.684;2022-11-04T17:16:10;6.20;99.90
37874;DHT22;23709;48.078;11.684;2022-11-04T17:18:44;6.30;99.90
37874;DHT22;23709;48.078;11.684;2022-11-04T17:21:18;6.30;99.90
37874;DHT22;23709;48.078;11.684;2022-11-04T17:23:51;6.40;99.90
37874;DHT22;23709;48.078;11.684;2022-11-04T17:26:23;6.30;99.90
37874;DHT22;23709;48.078;11.684;2022-11-04T17:28:55;6.30;99.90
37874;DHT22;23709;48.078;11.684;2022-11-04T17:31:28;6.30;99.90
37874;DHT22;23709;48.078;11.684;2022-11-04T17:34:00;6.30;99.90
37874;DHT22;23709;48.078;11.684;2022-11-04T17:36:32;6.20;99.90
37874;DHT22;23709;48.078;11.684;2022-11-04T17:39:05;6.30;99.90
37874;DHT22;23709;48.078;11.684;2022-11-04T17:41:38;6.30;99.90
37874;DHT22;23709;48.078;11.684;2022-11-04T17:44:29;6.40;99.90
37874;DHT22;23709;48.078;11.684;2022-11-04T17:47:01;6.30;99.90
37874;DHT22;23709;48.078;11.684;2022-11-04T17:49:34;6.20;99.90
37874;DHT22;23709;48.078;11.684;2022-11-04T17:52:07;6.30;99.90
37874;DHT22;23709;48.078;11.684;2022-11-04T17:54:40;6.20;99.90
37874;DHT22;23709;48.078;11.684;2022-11-04T17:57:12;6.10;99.90
37874;DHT22;23709;48.078;11.684;2022-11-04T17:59:44;6.20;99.90
37874;DHT22;23709;48.078;11.684;2022-11-04T18:02:17;6.20;99.90
37874;DHT22;23709;48.078;11.684;2022-11-04T18:04:49;6.20;99.90
37874;DHT22;23709;48.078;11.684;2022-11-04T18:07:21;6.10;99.90
37874;DHT22;23709;48.078;11.684;2022-11-04T18:09:53;6.10;99.90
37874;DHT22;23709;48.078;11.684;2022-11-04T18:12:26;6.10;99.90
37874;DHT22;23709;48.078;11.684;2022-11-04T18:15:14;6.00;99.90
37874;DHT22;23709;48.078;11.684;2022-11-04T18:17:49;6.00;99.90
37874;DHT22;23709;48.078;11.684;2022-11-04T18:20:23;6.00;99.90
37874;DHT22;23709;48.078;11.684;2022-11-04T18:22:55;6.10;99.90
37874;DHT22;23709;48.078;11.684;2022-11-04T18:25:29;6.00;99.90
37874;DHT22;23709;48.078;11.684;2022-11-04T18:28:01;6.00;99.90
37874;DHT22;23709;48.078;11.684;2022-11-04T18:30:33;6.00;99.90
37874;DHT22;23709;48.078;11.684;2022-11-04T18:33:05;6.10;99.90
37874;DHT22;23709;48.078;11.684;2022-11-04T18:35:38;6.10;99.90
37874;DHT22;23709;48.078;11.684;2022-11-04T18:38:10;6.20;99.90
37874;DHT22;23709;48.078;11.684;2022-11-04T18:40:42;6.20;99.90
37874;DHT22;23709;48.078;11.684;2022-11-04T18:43:14;6.20;99.90
37874;DHT22;23709;48.078;11.684;2022-11-04T18:45:47;6.20;99.90
37874;DHT22;23709;48.078;11.684;2022-11-04T18:48:20;6.10;99.90
37874;DHT22;23709;48.078;11.684;2022-11-04T18:50:52;6.10;99.90
37874;DHT22;23709;48.078;11.684;2022-11-04T18:53:24;6.00;99.90
37874;DHT22;23709;48.078;11.684;2022-11-04T18:58:35;6.00;99.90
37874;DHT22;23709;48.078;11.684;2022-11-04T19:01:23;6.00;99.90
37874;DHT22;23709;48.078;11.684;2022-11-04T19:03:56;6.00;99.90
37874;DHT22;23709;48.078;11.684;2022-11-04T19:06:31;6.00;99.90
37874;DHT22;23709;48.078;11.684;2022-11-04T19:09:07;6.10;99.90
37874;DHT22;23709;48.078;11.684;2022-11-04T19:11:59;6.10;99.90
37874;DHT22;23709;48.078;11.684;2022-11-04T19:14:51;6.00;99.90
37874;DHT22;23709;48.078;11.684;2022-11-04T19:17:23;5.90;99.90
37874;DHT22;23709;48.078;11.684;2022-11-04T19:19:56;5.90;99.90
37874;DHT22;23709;48.078;11.684;2022-11-04T19:22:29;5.90;99.90
37874;DHT22;23709;48.078;11.684;2022-11-04T19:25:01;5.90;99.90
37874;DHT22;23709;48.078;11.684;2022-11-04T19:27:33;5.90;99.90
37874;DHT22;23709;48.078;11.684;2022-11-04T19:30:05;5.90;99.90